createdAt,value
2022-08-17T00:00:34.356Z,24.12
2022-08-17T00:03:10.396Z,23.98
2022-08-17T00:05:44.179Z,23.80
2022-08-17T00:08:17.915Z,23.71
2022-08-17T00:10:46.375Z,23.76
2022-08-17T00:13:21.366Z,23.77
2022-08-17T00:15:51.700Z,23.72
2022-08-17T00:18:58.178Z,23.76
2022-08-17T00:21:10.831Z,24.06
2022-08-17T00:23:44.426Z,23.87
2022-08-17T00:26:43.742Z,23.81
2022-08-17T00:29:09.170Z,23.71
2022-08-17T00:31:37.099Z,23.71
2022-08-17T00:34:05.213Z,23.53
2022-08-17T00:36:32.985Z,23.24
2022-08-17T00:39:02.910Z,23.33
2022-08-17T00:41:30.983Z,23.30
2022-08-17T00:44:02.432Z,23.38
2022-08-17T00:46:37.235Z,23.11
2022-08-17T00:49:06.591Z,23.35
2022-08-17T00:51:56.733Z,23.22
2022-08-17T00:54:29.136Z,23.45
2022-08-17T00:57:07.326Z,23.32
2022-08-17T00:59:38.720Z,23.46
2022-08-17T01:02:09.662Z,23.12
2022-08-17T01:04:37.794Z,23.12
2022-08-17T01:07:06.055Z,23.54
2022-08-17T01:09:36.252Z,23.72
2022-08-17T01:12:06.962Z,23.59
2022-08-17T01:14:39.329Z,23.76
2022-08-17T01:17:07.438Z,23.64
2022-08-17T01:19:39.373Z,23.28
2022-08-17T01:22:14.355Z,22.90
2022-08-17T01:24:47.748Z,22.88
2022-08-17T01:27:16.291Z,22.98
2022-08-17T01:29:50.149Z,22.86
2022-08-17T01:32:18.976Z,22.98
2022-08-17T01:34:50.106Z,22.89
2022-08-17T01:37:24.304Z,22.89
2022-08-17T01:39:59.935Z,22.65
2022-08-17T01:42:42.339Z,23.28
2022-08-17T01:45:14.965Z,23.32
2022-08-17T01:47:42.757Z,23.32
2022-08-17T01:50:15.822Z,23.21
2022-08-17T01:52:45.837Z,22.87
2022-08-17T01:55:16.368Z,22.68
2022-08-17T01:57:45.606Z,23.02
2022-08-17T02:00:13.767Z,23.42
2022-08-17T02:02:45.922Z,22.97
2022-08-17T02:05:14.420Z,22.77
2022-08-17T02:07:59.334Z,23.05
2022-08-17T02:10:33.930Z,23.28
2022-08-17T02:13:04.232Z,23.08
2022-08-17T02:15:32.334Z,22.91
2022-08-17T02:17:59.890Z,22.88
2022-08-17T02:20:41.778Z,22.82
2022-08-17T02:23:11.962Z,22.65
2022-08-17T02:25:40.634Z,22.92
2022-08-17T02:28:08.129Z,23.20
2022-08-17T02:31:01.155Z,23.17
2022-08-17T02:33:23.563Z,23.13
2022-08-17T02:36:10.796Z,22.60
2022-08-17T02:38:39.863Z,22.72
2022-08-17T02:41:07.362Z,22.26
2022-08-17T02:43:35.005Z,22.21
2022-08-17T02:46:02.764Z,22.46
2022-08-17T02:48:32.963Z,22.56
2022-08-17T02:51:00.840Z,22.89
2022-08-17T02:53:33.683Z,23.02
2022-08-17T02:56:04.233Z,23.15
2022-08-17T02:58:34.920Z,22.98
2022-08-17T03:01:06.101Z,22.55
2022-08-17T03:03:35.049Z,22.27
2022-08-17T03:06:03.354Z,22.27
2022-08-17T03:08:31.011Z,22.11
2022-08-17T03:10:58.707Z,22.17
2022-08-17T03:13:27.254Z,22.52
2022-08-17T03:15:54.695Z,22.16
2022-08-17T03:18:25.595Z,21.75
2022-08-17T03:21:01.476Z,21.80
2022-08-17T03:23:29.475Z,21.95
2022-08-17T03:25:58.274Z,22.27
2022-08-17T03:28:26.242Z,22.57
2022-08-17T03:30:54.384Z,22.62
2022-08-17T03:33:22.382Z,22.80
2022-08-17T03:35:50.083Z,22.69
2022-08-17T03:38:18.290Z,22.77
2022-08-17T03:40:56.792Z,22.73
2022-08-17T03:43:32.102Z,22.43
2022-08-17T03:46:27.823Z,22.54
2022-08-17T03:49:22.672Z,22.41
2022-08-17T03:52:08.745Z,22.16
2022-08-17T03:54:55.492Z,21.96
2022-08-17T03:57:23.264Z,21.81
2022-08-17T03:59:51.123Z,21.67
2022-08-17T04:02:22.749Z,22.07
2022-08-17T04:04:51.288Z,22.14
2022-08-17T04:07:20.429Z,22.00
2022-08-17T04:09:47.961Z,21.88
2022-08-17T04:12:18.371Z,21.60
2022-08-17T04:14:52.609Z,21.45
2022-08-17T04:17:27.982Z,21.51
2022-08-17T04:19:56.086Z,21.45
2022-08-17T04:22:33.293Z,21.88
2022-08-17T04:25:09.161Z,22.25
2022-08-17T04:27:42.900Z,22.14
2022-08-17T04:30:11.037Z,22.66
2022-08-17T04:33:09.820Z,22.80
2022-08-17T04:35:40.847Z,23.06
2022-08-17T04:38:13.625Z,22.86
2022-08-17T04:40:59.684Z,22.90
2022-08-17T04:43:28.542Z,23.08
2022-08-17T04:46:02.645Z,23.16
2022-08-17T04:48:41.018Z,23.00
2022-08-17T04:51:18.321Z,23.13
2022-08-17T04:53:51.077Z,23.10
2022-08-17T04:56:23.750Z,23.12
2022-08-17T04:58:56.585Z,23.20
2022-08-17T05:01:25.940Z,23.11
2022-08-17T05:03:59.438Z,23.09
2022-08-17T05:06:28.458Z,23.25
2022-08-17T05:08:57.269Z,23.35
2022-08-17T05:11:26.229Z,23.50
2022-08-17T05:13:55.051Z,23.36
2022-08-17T05:16:25.043Z,23.49
2022-08-17T05:18:53.092Z,23.91
2022-08-17T05:21:22.602Z,23.89
2022-08-17T05:23:56.247Z,23.98
2022-08-17T05:26:27.360Z,24.10
2022-08-17T05:28:59.454Z,24.18
2022-08-17T05:31:28.844Z,24.29
2022-08-17T05:33:56.777Z,24.42
2022-08-17T05:36:43.093Z,24.45
2022-08-17T05:39:16.507Z,24.57
2022-08-17T05:41:47.711Z,24.54
2022-08-17T05:44:16.375Z,24.66
2022-08-17T05:46:48.890Z,24.69
2022-08-17T05:49:21.572Z,24.75
2022-08-17T05:52:29.466Z,24.99
2022-08-17T05:55:06.020Z,24.93
2022-08-17T05:57:53.258Z,24.96
2022-08-17T06:00:30.665Z,25.00
2022-08-17T06:03:17.478Z,25.15
2022-08-17T06:06:20.360Z,25.30
2022-08-17T06:09:21.206Z,25.50
2022-08-17T06:12:31.055Z,25.57
2022-08-17T06:15:09.668Z,25.58
2022-08-17T06:17:37.767Z,25.68
2022-08-17T06:20:15.816Z,25.84
2022-08-17T06:22:50.717Z,25.89
2022-08-17T06:25:27.652Z,26.00
2022-08-17T06:28:05.924Z,26.22
2022-08-17T06:31:00.560Z,26.16
2022-08-17T06:33:36.541Z,26.20
2022-08-17T06:36:23.657Z,25.99
2022-08-17T06:39:15.626Z,26.47
2022-08-17T06:41:49.783Z,26.62
2022-08-17T06:44:49.992Z,26.74
2022-08-17T06:47:15.745Z,26.62
2022-08-17T06:50:35.176Z,27.04
2022-08-17T06:53:30.221Z,27.35
2022-08-17T06:56:08.903Z,27.63
2022-08-17T06:58:38.896Z,27.66
2022-08-17T07:01:15.422Z,27.95
2022-08-17T07:04:04.989Z,28.23
2022-08-17T07:06:47.383Z,28.35
2022-08-17T07:09:39.053Z,28.41
2022-08-17T07:12:20.154Z,28.50
2022-08-17T07:14:58.840Z,28.55
2022-08-17T07:17:47.029Z,28.59
2022-08-17T07:20:20.768Z,28.79
2022-08-17T07:23:02.078Z,28.78
2022-08-17T07:25:35.275Z,28.94
2022-08-17T07:28:07.031Z,28.98
2022-08-17T07:30:45.583Z,29.06
2022-08-17T07:33:20.189Z,29.10
2022-08-17T07:35:50.192Z,29.05
2022-08-17T07:38:25.913Z,29.13
2022-08-17T07:40:57.858Z,29.31
2022-08-17T07:43:29.800Z,29.14
2022-08-17T07:46:19.690Z,29.32
2022-08-17T07:48:50.190Z,29.60
2022-08-17T07:51:36.581Z,29.10
2022-08-17T07:54:25.252Z,29.37
2022-08-17T07:56:58.386Z,29.42
2022-08-17T07:59:34.828Z,29.68
2022-08-17T08:02:33.845Z,29.89
2022-08-17T08:05:13.365Z,30.13
2022-08-17T08:07:54.335Z,30.26
2022-08-17T08:10:38.498Z,30.09
2022-08-17T08:13:18.664Z,30.07
2022-08-17T08:16:12.385Z,30.50
2022-08-17T08:18:55.317Z,30.36
2022-08-17T08:21:43.451Z,30.08
2022-08-17T08:24:30.933Z,30.27
2022-08-17T08:27:36.608Z,30.48
2022-08-17T08:30:05.270Z,30.28
2022-08-17T08:32:42.920Z,30.18
2022-08-17T08:35:41.498Z,30.32
2022-08-17T08:38:12.236Z,30.91
2022-08-17T08:40:59.520Z,30.97
2022-08-17T08:43:32.372Z,31.10
2022-08-17T08:46:21.038Z,30.81
2022-08-17T08:49:11.917Z,30.69
2022-08-17T08:51:58.891Z,30.87
2022-08-17T08:54:38.957Z,31.30
2022-08-17T08:57:40.852Z,31.23
2022-08-17T09:00:18.251Z,30.99
2022-08-17T09:02:58.486Z,31.17
2022-08-17T09:05:54.167Z,31.52
2022-08-17T09:08:28.773Z,31.23
2022-08-17T09:11:11.178Z,31.67
2022-08-17T09:13:54.344Z,31.39
2022-08-17T09:16:33.241Z,31.51
2022-08-17T09:19:12.528Z,31.13
2022-08-17T09:21:48.543Z,31.39
2022-08-17T09:24:32.849Z,31.54
2022-08-17T09:27:22.698Z,31.79
2022-08-17T09:29:59.516Z,31.90
2022-08-17T09:32:44.109Z,32.01
2022-08-17T09:35:20.926Z,32.20
2022-08-17T09:38:07.317Z,32.32
2022-08-17T09:41:01.875Z,32.07
2022-08-17T09:43:49.863Z,32.56
2022-08-17T09:46:25.754Z,32.35
2022-08-17T09:49:25.278Z,32.29
2022-08-17T09:51:57.909Z,32.49
2022-08-17T09:54:40.356Z,32.43
2022-08-17T09:57:28.510Z,32.75
2022-08-17T10:00:31.714Z,32.68
2022-08-17T10:03:11.952Z,32.60
2022-08-17T10:06:06.977Z,32.44
2022-08-17T10:08:46.481Z,32.22
2022-08-17T10:11:51.570Z,32.60
2022-08-17T10:14:37.214Z,32.62
2022-08-17T10:17:25.350Z,32.41
2022-08-17T10:20:34.041Z,32.61
2022-08-17T10:23:26.417Z,32.40
2022-08-17T10:26:15.990Z,32.60
2022-08-17T10:29:12.862Z,32.77
2022-08-17T10:31:53.558Z,32.96
2022-08-17T10:34:42.890Z,32.68
2022-08-17T10:37:19.839Z,33.22
2022-08-17T10:40:23.674Z,33.01
2022-08-17T10:43:00.456Z,33.36
2022-08-17T10:45:40.737Z,33.50
2022-08-17T10:48:08.790Z,33.22
2022-08-17T10:51:00.252Z,33.23
2022-08-17T10:53:43.660Z,33.31
2022-08-17T10:56:14.362Z,33.26
2022-08-17T10:58:55.352Z,33.43
2022-08-17T11:01:58.355Z,33.58
2022-08-17T11:04:55.407Z,33.72
2022-08-17T11:07:43.822Z,33.74
2022-08-17T11:10:26.780Z,33.88
2022-08-17T11:13:06.442Z,34.06
2022-08-17T11:15:58.839Z,33.94
2022-08-17T11:18:36.661Z,34.11
2022-08-17T11:21:13.902Z,33.60
2022-08-17T11:24:02.857Z,33.86
2022-08-17T11:26:34.764Z,34.11
2022-08-17T11:29:09.893Z,34.19
2022-08-17T11:31:42.647Z,33.99
2022-08-17T11:34:21.727Z,34.38
2022-08-17T11:37:07.987Z,34.34
2022-08-17T11:39:47.655Z,34.32
2022-08-17T11:42:50.478Z,34.57
2022-08-17T11:45:43.431Z,34.29
2022-08-17T11:48:40.801Z,34.18
2022-08-17T11:51:26.955Z,34.08
2022-08-17T11:54:14.670Z,34.04
2022-08-17T11:56:44.106Z,34.04
2022-08-17T11:59:33.350Z,34.10
2022-08-17T12:02:02.168Z,34.20
2022-08-17T12:04:35.369Z,34.67
2022-08-17T12:07:19.703Z,34.72
2022-08-17T12:09:49.774Z,35.17
2022-08-17T12:12:20.276Z,34.92
2022-08-17T12:15:10.685Z,34.61
2022-08-17T12:17:42.964Z,35.05
2022-08-17T12:20:22.209Z,35.14
2022-08-17T12:22:54.966Z,35.03
2022-08-17T12:25:59.432Z,34.91
2022-08-17T12:28:30.095Z,35.46
2022-08-17T12:31:07.433Z,35.63
2022-08-17T12:33:36.331Z,36.18
2022-08-17T12:36:07.542Z,36.40
2022-08-17T12:38:37.660Z,36.23
2022-08-17T12:41:28.403Z,35.94
2022-08-17T12:44:02.157Z,36.59
2022-08-17T12:46:45.362Z,36.83
2022-08-17T12:49:24.293Z,37.13
2022-08-17T12:52:16.482Z,37.03
2022-08-17T12:55:07.501Z,37.25
2022-08-17T12:57:38.298Z,37.48
2022-08-17T13:00:08.817Z,37.62
2022-08-17T13:02:47.277Z,37.32
2022-08-17T13:05:23.166Z,37.91
2022-08-17T13:07:53.189Z,37.42
2022-08-17T13:10:32.815Z,37.47
2022-08-17T13:13:05.340Z,37.51
2022-08-17T13:15:50.872Z,37.64
2022-08-17T13:18:40.322Z,37.67
2022-08-17T13:21:30.578Z,38.10
2022-08-17T13:24:13.480Z,38.23
2022-08-17T13:27:08.005Z,37.82
2022-08-17T13:29:45.166Z,38.29
2022-08-17T13:32:23.169Z,38.30
2022-08-17T13:35:11.931Z,38.38
2022-08-17T13:37:57.820Z,38.88
2022-08-17T13:40:30.064Z,39.04
2022-08-17T13:42:58.457Z,38.94
2022-08-17T13:45:34.952Z,38.58
2022-08-17T13:48:20.620Z,38.81
2022-08-17T13:51:04.624Z,38.92
2022-08-17T13:53:37.946Z,38.95
2022-08-17T13:56:37.477Z,39.02
2022-08-17T13:59:53.622Z,38.58
2022-08-17T14:02:16.086Z,38.12
2022-08-17T14:04:45.561Z,38.39
2022-08-17T14:07:13.159Z,38.25
2022-08-17T14:09:46.309Z,38.49
2022-08-17T14:12:17.059Z,38.02
2022-08-17T14:14:45.371Z,37.96
2022-08-17T14:17:13.251Z,38.13
2022-08-17T14:19:41.352Z,38.54
2022-08-17T14:22:39.691Z,38.48
2022-08-17T14:25:10.353Z,38.33
2022-08-17T14:27:52.403Z,38.63
2022-08-17T14:30:23.465Z,38.43
2022-08-17T14:32:52.030Z,38.45
2022-08-17T14:35:22.612Z,38.46
2022-08-17T14:37:51.225Z,38.02
2022-08-17T14:40:20.820Z,37.98
2022-08-17T14:42:48.769Z,37.51
2022-08-17T14:45:27.015Z,37.14
2022-08-17T14:48:01.804Z,37.70
2022-08-17T14:50:29.603Z,38.06
2022-08-17T14:53:01.425Z,38.18
2022-08-17T14:55:30.639Z,38.09
2022-08-17T14:57:58.499Z,38.08
2022-08-17T15:00:26.976Z,38.12
2022-08-17T15:03:00.144Z,38.18
2022-08-17T15:05:33.913Z,38.33
2022-08-17T15:08:02.708Z,38.47
2022-08-17T15:10:30.729Z,38.42
2022-08-17T15:12:58.503Z,38.17
2022-08-17T15:15:26.753Z,38.01
2022-08-17T15:17:54.282Z,37.96
2022-08-17T15:20:28.019Z,38.04
2022-08-17T15:22:57.527Z,37.93
2022-08-17T15:25:27.758Z,37.79
2022-08-17T15:27:56.035Z,37.70
2022-08-17T15:30:25.782Z,37.83
2022-08-17T15:32:54.519Z,37.80
2022-08-17T15:35:27.141Z,37.80
2022-08-17T15:38:06.535Z,37.61
2022-08-17T15:40:40.148Z,37.68
2022-08-17T15:43:11.328Z,37.72
2022-08-17T15:45:39.290Z,37.71
2022-08-17T15:48:07.025Z,37.42
2022-08-17T15:50:34.933Z,37.34
2022-08-17T15:53:03.606Z,36.43
2022-08-17T15:55:31.825Z,36.91
2022-08-17T15:57:59.816Z,36.89
2022-08-17T16:00:29.243Z,36.88
2022-08-17T16:03:44.716Z,36.75
2022-08-17T16:05:47.889Z,36.60
2022-08-17T16:08:20.669Z,36.70
2022-08-17T16:10:50.147Z,36.75
2022-08-17T16:13:19.044Z,36.12
2022-08-17T16:15:57.142Z,36.18
2022-08-17T16:18:30.907Z,36.28
2022-08-17T16:21:26.781Z,36.31
2022-08-17T16:23:58.189Z,36.09
2022-08-17T16:26:26.695Z,36.20
2022-08-17T16:28:54.461Z,36.14
2022-08-17T16:31:23.966Z,36.19
2022-08-17T16:34:08.981Z,35.96
2022-08-17T16:36:39.371Z,36.21
2022-08-17T16:39:06.856Z,36.18
2022-08-17T16:41:43.312Z,36.00
2022-08-17T16:44:15.728Z,35.95
2022-08-17T16:46:45.838Z,35.78
2022-08-17T16:49:36.293Z,35.67
2022-08-17T16:52:03.317Z,35.62
2022-08-17T16:54:31.104Z,35.48
2022-08-17T16:56:58.881Z,35.28
2022-08-17T16:59:31.363Z,35.11
2022-08-17T17:02:11.394Z,35.21
2022-08-17T17:04:46.148Z,34.93
2022-08-17T17:07:36.419Z,34.80
2022-08-17T17:10:16.827Z,34.86
2022-08-17T17:13:01.273Z,34.76
2022-08-17T17:16:09.682Z,34.79
2022-08-17T17:18:56.523Z,34.67
2022-08-17T17:21:32.431Z,34.49
2022-08-17T17:24:05.143Z,34.37
2022-08-17T17:26:51.087Z,34.18
2022-08-17T17:29:24.872Z,33.82
2022-08-17T17:32:09.501Z,33.46
2022-08-17T17:34:38.475Z,33.18
2022-08-17T17:37:12.441Z,32.87
2022-08-17T17:39:46.562Z,32.84
2022-08-17T17:42:27.793Z,32.80
2022-08-17T17:45:14.386Z,32.86
2022-08-17T17:47:41.912Z,32.85
2022-08-17T17:50:13.080Z,32.78
2022-08-17T17:52:49.679Z,32.52
2022-08-17T17:55:40.086Z,32.38
2022-08-17T17:58:38.825Z,32.27
2022-08-17T18:01:22.707Z,31.85
2022-08-17T18:03:53.908Z,31.87
2022-08-17T18:07:00.359Z,32.05
2022-08-17T18:10:02.646Z,31.90
2022-08-17T18:12:37.282Z,31.40
2022-08-17T18:15:27.457Z,31.23
2022-08-17T18:18:17.223Z,31.08
2022-08-17T18:20:53.651Z,30.96
2022-08-17T18:23:27.614Z,30.92
2022-08-17T18:25:57.271Z,30.88
2022-08-17T18:28:39.862Z,30.69
2022-08-17T18:31:20.954Z,30.82
2022-08-17T18:33:51.439Z,30.82
2022-08-17T18:36:34.133Z,30.35
2022-08-17T18:39:18.221Z,30.20
2022-08-17T18:41:52.097Z,30.42
2022-08-17T18:44:55.058Z,30.39
2022-08-17T18:47:46.581Z,30.58
2022-08-17T18:50:27.280Z,30.53
2022-08-17T18:53:30.389Z,30.52
2022-08-17T18:56:25.393Z,30.41
2022-08-17T18:59:11.273Z,30.13
2022-08-17T19:01:52.350Z,29.88
2022-08-17T19:04:42.879Z,29.70
2022-08-17T19:07:23.301Z,29.69
2022-08-17T19:10:12.952Z,29.31
2022-08-17T19:13:12.522Z,29.27
2022-08-17T19:16:11.740Z,29.04
2022-08-17T19:18:40.528Z,28.77
2022-08-17T19:21:10.402Z,29.27
2022-08-17T19:23:53.403Z,29.28
2022-08-17T19:26:51.174Z,28.82
2022-08-17T19:29:25.777Z,29.08
2022-08-17T19:31:56.372Z,28.70
2022-08-17T19:34:33.307Z,28.53
2022-08-17T19:37:03.960Z,28.52
2022-08-17T19:40:24.497Z,28.24
2022-08-17T19:43:31.238Z,28.53
2022-08-17T19:46:19.123Z,28.24
2022-08-17T19:48:56.661Z,28.44
2022-08-17T19:51:42.425Z,28.19
2022-08-17T19:54:55.559Z,27.93
2022-08-17T19:57:44.506Z,28.29
2022-08-17T20:00:15.789Z,28.29
2022-08-17T20:02:49.713Z,27.89
2022-08-17T20:05:21.736Z,27.68
2022-08-17T20:08:01.156Z,27.83
2022-08-17T20:10:48.037Z,27.88
2022-08-17T20:13:33.926Z,28.18
2022-08-17T20:16:03.127Z,27.99
2022-08-17T20:18:33.872Z,28.10
2022-08-17T20:21:10.375Z,28.18
2022-08-17T20:23:59.613Z,28.01
2022-08-17T20:26:37.036Z,27.92
2022-08-17T20:29:13.920Z,27.97
2022-08-17T20:32:05.876Z,27.90
2022-08-17T20:34:38.113Z,27.94
2022-08-17T20:37:10.817Z,27.71
2022-08-17T20:39:49.936Z,27.68
2022-08-17T20:42:20.303Z,27.64
2022-08-17T20:45:03.941Z,27.62
2022-08-17T20:48:01.161Z,27.65
2022-08-17T20:50:37.939Z,27.76
2022-08-17T20:53:08.655Z,27.65
2022-08-17T20:55:51.372Z,27.65
2022-08-17T20:58:24.644Z,27.76
2022-08-17T21:00:59.165Z,27.53
2022-08-17T21:03:32.229Z,27.42
2022-08-17T21:06:20.189Z,27.34
2022-08-17T21:08:53.846Z,27.19
2022-08-17T21:11:57.134Z,27.07
2022-08-17T21:14:18.111Z,27.06
2022-08-17T21:17:31.128Z,27.23
2022-08-17T21:20:43.727Z,27.17
2022-08-17T21:23:24.236Z,26.86
2022-08-17T21:26:12.791Z,26.81
2022-08-17T21:29:00.253Z,26.83
2022-08-17T21:31:35.505Z,26.89
2022-08-17T21:34:17.531Z,26.64
2022-08-17T21:36:47.283Z,26.41
2022-08-17T21:39:17.497Z,26.71
2022-08-17T21:41:55.377Z,26.70
2022-08-17T21:44:34.362Z,26.80
2022-08-17T21:47:19.728Z,26.44
2022-08-17T21:49:49.488Z,26.36
2022-08-17T21:52:19.210Z,26.56
2022-08-17T21:55:00.389Z,26.32
2022-08-17T21:57:29.112Z,26.26
2022-08-17T21:59:59.677Z,26.40
2022-08-17T22:02:32.905Z,26.39
2022-08-17T22:05:05.252Z,26.41
2022-08-17T22:07:37.674Z,26.21
2022-08-17T22:10:08.024Z,26.22
2022-08-17T22:12:35.562Z,26.22
2022-08-17T22:15:06.171Z,26.38
2022-08-17T22:17:38.391Z,26.14
2022-08-17T22:20:16.925Z,26.06
2022-08-17T22:23:06.463Z,26.00
2022-08-17T22:25:39.090Z,26.23
2022-08-17T22:28:09.134Z,25.87
2022-08-17T22:30:41.537Z,26.09
2022-08-17T22:34:02.015Z,26.13
2022-08-17T22:36:34.784Z,26.19
2022-08-17T22:39:26.289Z,26.21
2022-08-17T22:41:59.487Z,26.25
2022-08-17T22:44:33.433Z,26.02
2022-08-17T22:47:11.299Z,25.96
2022-08-17T22:50:03.658Z,26.00
2022-08-17T22:53:00.610Z,25.86
2022-08-17T22:55:49.486Z,25.85
2022-08-17T22:58:38.067Z,25.75
2022-08-17T23:01:35.690Z,25.64
2022-08-17T23:04:07.759Z,25.26
2022-08-17T23:06:37.737Z,25.57
2022-08-17T23:09:06.787Z,25.41
2022-08-17T23:11:58.805Z,25.26
2022-08-17T23:14:31.721Z,25.18
2022-08-17T23:16:59.436Z,25.36
2022-08-17T23:19:28.403Z,25.63
2022-08-17T23:21:56.553Z,25.52
2022-08-17T23:24:38.088Z,25.64
2022-08-17T23:27:07.598Z,25.46
2022-08-17T23:29:35.540Z,25.55
2022-08-17T23:32:04.821Z,25.07
2022-08-17T23:34:33.069Z,25.12
2022-08-17T23:37:02.330Z,25.02
2022-08-17T23:39:30.297Z,25.09
2022-08-17T23:41:59.517Z,25.13
2022-08-17T23:44:28.771Z,25.25
2022-08-17T23:46:57.105Z,24.96
2022-08-17T23:49:25.347Z,25.17
2022-08-17T23:51:55.573Z,24.98
2022-08-17T23:54:28.387Z,25.15
2022-08-17T23:56:56.417Z,25.07
2022-08-17T23:59:23.935Z,24.81
